Time;durP1;ratioP1;P1;durP2;ratioP2;P2;SDS_P1;SDS_P2;PMS_P1;PMS_P2;Temp;Humidity;BMP_temperature;BMP_pressure;BME280_temperature;BME280_humidity;BME280_pressure;Samples;Min_cycle;Max_cycle;Signal;HPM_P1;HPM_P2
2023/01/02 00:01:38;;;;;;;10.00;5.78;;;10.20;99.90;;;;;;5078923;28;20043;-66
2023/01/02 00:04:04;;;;;;;9.32;6.57;;;10.20;99.90;;;;;;5079465;28;20055;-66
2023/01/02 00:06:34;;;;;;;13.00;6.70;;;10.20;99.90;;;;;;5078746;28;20040;-66
2023/01/02 00:09:01;;;;;;;11.82;6.03;;;10.20;99.90;;;;;;5096864;28;20092;-66
2023/01/02 00:11:27;;;;;;;13.38;7.00;;;10.20;99.90;;;;;;5096767;28;20059;-66
2023/01/02 00:13:53;;;;;;;13.48;7.93;;;10.20;99.90;;;;;;5096714;28;20048;-66
2023/01/02 00:16:18;;;;;;;11.50;6.80;;;10.20;99.90;;;;;;5096561;28;20113;-66
2023/01/02 00:18:44;;;;;;;11.48;7.25;;;10.20;99.90;;;;;;5096591;28;20083;-66
2023/01/02 00:21:10;;;;;;;14.48;8.35;;;10.20;99.90;;;;;;5096547;28;20043;-66
2023/01/02 00:23:36;;;;;;;13.25;7.75;;;10.20;99.90;;;;;;5096567;28;20044;-66
2023/01/02 00:26:02;;;;;;;16.52;9.57;;;10.20;99.90;;;;;;5096536;28;20036;-66
2023/01/02 00:28:28;;;;;;;14.23;9.80;;;10.20;99.90;;;;;;5096501;28;20127;-66
2023/01/02 00:30:54;;;;;;;13.68;8.95;;;10.20;99.90;;;;;;5096428;28;20467;-66
2023/01/02 00:33:19;;;;;;;15.15;9.30;;;10.20;99.90;;;;;;5096346;28;20050;-66
2023/01/02 00:35:45;;;;;;;18.55;11.68;;;10.20;99.90;;;;;;5078558;28;20097;-66
2023/01/02 00:38:11;;;;;;;16.23;9.93;;;10.30;99.90;;;;;;5096246;28;20490;-66
2023/01/02 00:40:37;;;;;;;18.20;10.68;;;10.30;99.90;;;;;;5078127;28;20055;-66
2023/01/02 00:43:03;;;;;;;21.73;11.98;;;10.30;99.90;;;;;;5096172;28;20502;-66
2023/01/02 00:45:29;;;;;;;16.90;10.93;;;10.30;99.90;;;;;;5096141;28;20131;-66
2023/01/02 00:47:54;;;;;;;13.45;10.00;;;10.30;99.90;;;;;;5095989;28;20071;-66
2023/01/02 00:50:20;;;;;;;17.40;10.73;;;10.30;99.90;;;;;;5096096;28;20520;-66
2023/01/02 00:52:46;;;;;;;17.77;11.32;;;10.30;99.90;;;;;;5096456;28;20059;-66
2023/01/02 00:55:11;;;;;;;18.45;11.30;;;10.30;99.90;;;;;;5096255;28;20044;-66
2023/01/02 00:57:37;;;;;;;17.65;11.25;;;10.30;99.90;;;;;;5077915;28;20387;-66
2023/01/02 01:00:05;;;;;;;17.27;11.52;;;10.30;99.90;;;;;;5096950;28;20055;-66
2023/01/02 01:02:31;;;;;;;17.70;10.73;;;10.30;99.90;;;;;;5095488;28;20044;-66
2023/01/02 01:04:57;;;;;;;21.13;11.57;;;10.40;99.90;;;;;;5095740;28;20043;-66
2023/01/02 01:07:22;;;;;;;23.05;11.73;;;10.40;99.90;;;;;;5077783;28;20040;-66
2023/01/02 01:09:48;;;;;;;20.50;11.85;;;10.40;99.90;;;;;;5095410;28;20054;-66
2023/01/02 01:12:14;;;;;;;17.80;11.20;;;10.40;99.90;;;;;;5095986;28;20052;-66
2023/01/02 01:14:39;;;;;;;24.08;12.45;;;10.40;99.90;;;;;;5061107;28;20472;-66
2023/01/02 01:17:05;;;;;;;22.52;13.32;;;10.40;99.90;;;;;;5095383;28;20047;-66
2023/01/02 01:19:33;;;;;;;21.88;13.63;;;10.40;99.90;;;;;;5095477;28;20472;-66
2023/01/02 01:21:59;;;;;;;22.23;12.68;;;10.40;99.90;;;;;;5095995;28;20070;-65
2023/01/02 01:24:25;;;;;;;23.45;12.55;;;10.40;99.90;;;;;;5077487;28;20040;-65
2023/01/02 01:26:51;;;;;;;19.55;12.40;;;10.40;99.90;;;;;;5096150;28;20044;-65
2023/01/02 01:29:16;;;;;;;19.75;12.23;;;10.40;99.90;;;;;;5096095;28;20048;-65
2023/01/02 01:31:42;;;;;;;21.27;12.52;;;10.40;99.90;;;;;;5095328;28;20480;-66
2023/01/02 01:34:11;;;;;;;24.70;14.27;;;10.40;99.90;;;;;;5095811;28;20044;-65
2023/01/02 01:36:37;;;;;;;20.67;13.27;;;10.40;99.90;;;;;;5095099;28;20131;-65
2023/01/02 01:39:02;;;;;;;23.52;13.88;;;10.40;99.90;;;;;;5095073;28;20151;-65
2023/01/02 01:41:28;;;;;;;27.83;15.52;;;10.40;99.90;;;;;;5094754;28;20101;-65
2023/01/02 01:44:00;;;;;;;25.63;15.60;;;10.40;99.90;;;;;;5076949;28;20123;-65
2023/01/02 01:46:29;;;;;;;22.05;13.35;;;10.40;99.90;;;;;;5095235;28;20043;-65
2023/01/02 01:49:01;;;;;;;22.67;14.05;;;10.40;99.90;;;;;;5095062;28;20044;-65
2023/01/02 01:51:29;;;;;;;24.17;13.82;;;10.40;99.90;;;;;;5094686;28;20110;-65
2023/01/02 01:54:04;;;;;;;23.20;14.75;;;10.40;99.90;;;;;;5095155;28;20048;-65
2023/01/02 01:56:31;;;;;;;27.42;15.30;;;10.50;99.90;;;;;;5094724;28;20050;-65
2023/01/02 01:58:57;;;;;;;24.50;15.88;;;10.50;99.90;;;;;;5094701;28;20055;-65
2023/01/02 02:01:23;;;;;;;20.17;13.73;;;10.50;99.90;;;;;;5095206;28;20048;-66
2023/01/02 02:03:50;;;;;;;24.60;14.57;;;10.50;99.90;;;;;;5076745;28;20051;-65
2023/01/02 02:06:17;;;;;;;19.90;14.48;;;10.50;99.90;;;;;;5095149;28;20127;-66
2023/01/02 02:09:00;;;;;;;25.80;16.08;;;10.50;99.90;;;;;;5059692;28;20060;-66
2023/01/02 02:11:26;;;;;;;23.73;13.82;;;10.50;99.90;;;;;;5095121;28;20055;-66
2023/01/02 02:13:59;;;;;;;24.33;14.68;;;10.50;99.90;;;;;;5094990;28;20097;-66
2023/01/02 02:16:50;;;;;;;24.70;13.98;;;10.50;99.90;;;;;;5094410;28;20127;-66
2023/01/02 02:19:46;;;;;;;21.52;13.52;;;10.50;99.90;;;;;;5094302;28;20055;-65
2023/01/02 02:22:36;;;;;;;21.88;13.50;;;10.60;99.90;;;;;;5095174;28;20431;-66
2023/01/02 02:25:10;;;;;;;25.55;13.38;;;10.60;99.90;;;;;;5095103;28;20409;-65
2023/01/02 02:28:09;;;;;;;18.88;11.82;;;10.60;99.90;;;;;;5094237;28;20047;-65
2023/01/02 02:30:39;;;;;;;23.00;12.50;;;10.60;99.90;;;;;;5059649;28;20479;-65
2023/01/02 02:33:18;;;;;;;20.00;12.75;;;10.60;99.90;;;;;;5076108;28;20563;-66
2023/01/02 02:36:10;;;;;;;20.73;11.98;;;10.60;99.90;;;;;;5094646;28;20048;-65
2023/01/02 02:38:57;;;;;;;16.45;11.20;;;10.60;99.90;;;;;;5075989;28;20039;-65
2023/01/02 02:41:46;;;;;;;19.83;11.32;;;10.60;99.90;;;;;;5076093;28;20483;-65
2023/01/02 02:44:14;;;;;;;17.17;11.52;;;10.70;99.90;;;;;;5094575;28;20380;-65
2023/01/02 02:46:58;;;;;;;20.05;11.95;;;10.70;99.90;;;;;;5093889;28;20044;-65
2023/01/02 02:49:55;;;;;;;17.77;10.40;;;10.70;99.90;;;;;;5093845;28;20044;-65
2023/01/02 02:52:26;;;;;;;17.20;10.75;;;10.70;99.90;;;;;;5093939;28;20048;-65
2023/01/02 02:55:17;;;;;;;13.30;9.35;;;10.70;99.90;;;;;;5075702;28;20529;-65
2023/01/02 02:57:44;;;;;;;15.30;9.65;;;10.70;99.90;;;;;;5094335;28;20052;-65
2023/01/02 03:00:14;;;;;;;20.98;10.45;;;10.70;99.90;;;;;;5076695;28;20388;-65
2023/01/02 03:02:40;;;;;;;12.40;8.75;;;10.70;99.90;;;;;;5094479;28;20456;-65
2023/01/02 03:05:10;;;;;;;14.75;9.70;;;10.80;99.90;;;;;;5093609;28;20145;-66
2023/01/02 03:07:52;;;;;;;16.50;9.00;;;10.80;99.90;;;;;;5094395;28;20051;-66
2023/01/02 03:10:50;;;;;;;14.77;9.10;;;10.80;99.90;;;;;;5093766;28;20373;-65
2023/01/02 03:13:39;;;;;;;17.20;9.77;;;10.80;99.90;;;;;;5094115;28;20051;-65
2023/01/02 03:16:40;;;;;;;17.20;9.80;;;10.80;99.90;;;;;;5093230;28;20467;-65
2023/01/02 03:19:12;;;;;;;16.80;9.63;;;10.80;99.90;;;;;;5011418;28;20058;-65
2023/01/02 03:21:59;;;;;;;16.35;9.95;;;10.80;99.90;;;;;;5080074;28;20134;-65
2023/01/02 03:24:27;;;;;;;16.63;9.50;;;10.80;99.90;;;;;;5093507;28;20048;-65
2023/01/02 03:27:04;;;;;;;14.98;8.48;;;10.80;99.90;;;;;;5093373;28;20048;-65
2023/01/02 03:29:38;;;;;;;13.77;8.77;;;10.80;99.90;;;;;;5093751;28;20380;-65
2023/01/02 03:32:09;;;;;;;15.30;9.45;;;10.80;99.90;;;;;;5094205;28;20380;-65
2023/01/02 03:34:37;;;;;;;20.15;10.40;;;10.80;99.90;;;;;;5093330;28;20587;-65
2023/01/02 03:37:09;;;;;;;17.13;9.63;;;10.80;99.90;;;;;;5093261;28;20040;-65
2023/01/02 03:39:44;;;;;;;14.98;9.05;;;10.90;99.90;;;;;;5093321;28;20079;-65
2023/01/02 03:42:24;;;;;;;14.95;8.95;;;10.80;99.90;;;;;;5093584;28;20048;-65
2023/01/02 03:45:03;;;;;;;14.85;9.07;;;10.80;99.90;;;;;;5093324;28;20080;-65
2023/01/02 03:47:50;;;;;;;13.20;8.30;;;10.90;99.90;;;;;;5093200;28;20063;-65
2023/01/02 03:50:22;;;;;;;14.27;8.40;;;10.80;99.90;;;;;;5093197;28;20101;-65
2023/01/02 03:52:48;;;;;;;18.33;9.23;;;10.90;99.90;;;;;;5093081;28;20051;-65
2023/01/02 03:55:14;;;;;;;16.85;8.05;;;10.90;99.90;;;;;;5093156;28;20385;-65
2023/01/02 03:58:05;;;;;;;17.88;8.57;;;10.90;99.90;;;;;;5093080;28;20046;-65
2023/01/02 04:00:40;;;;;;;14.38;7.65;;;10.90;99.90;;;;;;5075169;28;20101;-65
2023/01/02 04:03:11;;;;;;;13.45;8.20;;;10.90;99.90;;;;;;5075618;28;20052;-65
2023/01/02 04:05:37;;;;;;;17.17;8.27;;;10.90;99.90;;;;;;5093388;28;20156;-65
2023/01/02 04:08:12;;;;;;;15.38;7.32;;;10.90;99.90;;;;;;5092787;28;20494;-66
2023/01/02 04:10:39;;;;;;;15.07;7.32;;;10.90;99.90;;;;;;5093633;28;20051;-65
2023/01/02 04:13:15;;;;;;;13.38;8.15;;;10.90;99.90;;;;;;5094126;28;20081;-65
2023/01/02 04:15:42;;;;;;;12.75;7.65;;;11.00;99.90;;;;;;5093571;28;20071;-65
2023/01/02 04:18:15;;;;;;;13.25;7.55;;;10.90;99.90;;;;;;5093351;28;20044;-65
2023/01/02 04:20:48;;;;;;;13.18;7.40;;;11.00;99.90;;;;;;5093502;28;20110;-65
2023/01/02 04:23:23;;;;;;;16.48;8.55;;;11.00;99.90;;;;;;5094567;28;20048;-65
2023/01/02 04:26:06;;;;;;;13.95;7.43;;;10.90;99.90;;;;;;5096859;28;20430;-65
2023/01/02 04:28:33;;;;;;;10.45;6.88;;;11.00;99.90;;;;;;5096451;28;20036;-65
2023/01/02 04:31:10;;;;;;;14.05;7.18;;;10.90;99.90;;;;;;5096423;28;20127;-65
2023/01/02 04:33:44;;;;;;;14.25;7.20;;;11.00;99.90;;;;;;5079070;28;20123;-65
2023/01/02 04:36:11;;;;;;;10.52;6.68;;;11.00;99.90;;;;;;5096417;28;20113;-65
2023/01/02 04:38:38;;;;;;;11.23;6.68;;;11.00;99.90;;;;;;5078135;28;20040;-66
2023/01/02 04:41:05;;;;;;;12.60;7.63;;;11.00;99.90;;;;;;5096208;28;20044;-65
2023/01/02 04:43:31;;;;;;;12.77;7.75;;;11.00;99.90;;;;;;5079087;28;20483;-65
2023/01/02 04:45:56;;;;;;;12.88;7.70;;;11.00;99.90;;;;;;5096449;28;20126;-65
2023/01/02 04:48:22;;;;;;;11.30;7.00;;;11.00;99.90;;;;;;5061508;28;20476;-65
2023/01/02 04:50:48;;;;;;;12.10;7.15;;;10.90;99.90;;;;;;5078067;28;20132;-65
2023/01/02 04:53:14;;;;;;;12.82;7.63;;;11.00;99.90;;;;;;5095937;28;20048;-65
2023/01/02 04:55:40;;;;;;;11.93;7.70;;;11.00;99.90;;;;;;5095939;28;20094;-65
2023/01/02 04:58:06;;;;;;;13.68;7.65;;;11.00;99.90;;;;;;5095557;28;20044;-65
2023/01/02 05:00:32;;;;;;;14.50;7.75;;;11.00;99.90;;;;;;5077904;28;20051;-66
2023/01/02 05:02:58;;;;;;;13.82;6.75;;;11.00;99.90;;;;;;5095626;28;20458;-66
2023/01/02 05:05:23;;;;;;;18.15;7.35;;;11.00;99.90;;;;;;5096033;28;20128;-66
2023/01/02 05:07:49;;;;;;;14.32;7.45;;;11.00;99.90;;;;;;5060919;28;20052;-67
2023/01/02 05:10:15;;;;;;;17.05;7.18;;;11.00;99.90;;;;;;5095923;28;20040;-66
2023/01/02 05:12:40;;;;;;;12.75;7.20;;;11.00;99.90;;;;;;5077814;28;20498;-66
2023/01/02 05:15:09;;;;;;;11.55;6.97;;;11.00;99.90;;;;;;5077895;28;20047;-66
2023/01/02 05:17:36;;;;;;;12.23;7.22;;;11.00;99.90;;;;;;5078096;28;20036;-66
2023/01/02 05:20:03;;;;;;;14.52;7.65;;;11.00;99.90;;;;;;5095798;28;20042;-66
2023/01/02 05:25:13;;;;;;;11.35;7.43;;;11.00;99.90;;;;;;5095966;28;20048;-66
2023/01/02 05:27:39;;;;;;;13.70;7.35;;;11.00;99.90;;;;;;5095292;28;20044;-66
2023/01/02 05:30:06;;;;;;;14.35;7.53;;;11.00;99.90;;;;;;5095245;28;20127;-66
2023/01/02 05:32:32;;;;;;;13.38;7.35;;;11.10;99.90;;;;;;5095205;28;20051;-66
2023/01/02 05:34:58;;;;;;;13.90;7.45;;;11.00;99.90;;;;;;5095147;28;20043;-66
2023/01/02 05:37:24;;;;;;;11.65;6.68;;;11.10;99.90;;;;;;5095035;28;20048;-66
2023/01/02 05:39:50;;;;;;;12.90;7.05;;;11.10;99.90;;;;;;5095640;28;20090;-66
2023/01/02 05:42:15;;;;;;;10.82;6.55;;;11.10;99.90;;;;;;5077012;28;20040;-66
2023/01/02 05:44:41;;;;;;;9.73;6.53;;;11.10;99.90;;;;;;5077853;28;20051;-66
2023/01/02 05:47:07;;;;;;;12.38;6.45;;;11.10;99.90;;;;;;5095002;28;20044;-66
2023/01/02 05:49:32;;;;;;;14.05;6.95;;;11.10;99.90;;;;;;5095644;28;20051;-66
2023/01/02 05:51:58;;;;;;;12.25;6.43;;;11.20;99.90;;;;;;5094734;28;20139;-66
2023/01/02 05:54:24;;;;;;;13.73;6.05;;;11.20;99.90;;;;;;5095111;28;20052;-65
2023/01/02 05:56:49;;;;;;;8.38;6.13;;;11.20;99.90;;;;;;5094665;28;20539;-66
2023/01/02 05:59:15;;;;;;;10.30;6.13;;;11.20;99.90;;;;;;5095453;28;20054;-66
2023/01/02 06:01:41;;;;;;;10.57;5.70;;;11.20;99.90;;;;;;5094604;28;20105;-66
2023/01/02 06:04:07;;;;;;;11.35;5.85;;;11.20;99.90;;;;;;5094522;28;20043;-66
2023/01/02 06:06:38;;;;;;;12.07;6.45;;;11.20;99.90;;;;;;5077488;28;20050;-66
2023/01/02 06:09:05;;;;;;;18.00;6.32;;;11.20;99.90;;;;;;5094499;28;20062;-66
2023/01/02 06:11:31;;;;;;;9.80;5.78;;;11.20;99.90;;;;;;5059943;28;20162;-66
2023/01/02 06:13:57;;;;;;;10.43;5.72;;;11.20;99.90;;;;;;5094460;28;20127;-65
2023/01/02 06:16:24;;;;;;;11.90;6.30;;;11.30;99.90;;;;;;5095175;28;20055;-65
2023/01/02 06:18:50;;;;;;;13.20;6.90;;;11.30;99.90;;;;;;5094249;28;20102;-66
2023/01/02 06:21:18;;;;;;;9.07;5.70;;;11.30;99.90;;;;;;5094356;28;20086;-66
2023/01/02 06:23:44;;;;;;;11.13;5.85;;;11.30;99.90;;;;;;5095388;28;20105;-66
2023/01/02 06:26:13;;;;;;;10.60;6.15;;;11.30;99.90;;;;;;5094284;28;20043;-66
2023/01/02 06:28:39;;;;;;;10.18;6.65;;;11.30;99.90;;;;;;5094170;28;20044;-66
2023/01/02 06:31:07;;;;;;;9.52;5.90;;;11.30;99.90;;;;;;5094400;28;20098;-66
2023/01/02 06:33:34;;;;;;;8.75;6.03;;;11.30;99.90;;;;;;5094097;28;20051;-66
2023/01/02 06:36:20;;;;;;;10.00;5.97;;;11.30;99.90;;;;;;5094612;28;20361;-66
2023/01/02 06:38:46;;;;;;;11.82;6.55;;;11.30;99.90;;;;;;5093259;28;20063;-66
2023/01/02 06:41:12;;;;;;;11.88;7.20;;;11.30;99.90;;;;;;5094487;28;20044;-66
2023/01/02 06:43:44;;;;;;;14.93;7.15;;;11.30;99.90;;;;;;5060275;28;20105;-66
2023/01/02 06:46:11;;;;;;;13.50;8.02;;;11.30;99.90;;;;;;5075146;28;20048;-66
2023/01/02 06:48:37;;;;;;;15.98;8.82;;;11.10;99.90;;;;;;5075863;28;20052;-66
2023/01/02 06:51:10;;;;;;;19.52;11.05;;;11.30;99.90;;;;;;5093856;28;20139;-66
2023/01/02 06:53:37;;;;;;;18.13;9.20;;;11.30;99.90;;;;;;5094364;28;20056;-66
2023/01/02 06:56:04;;;;;;;17.80;8.20;;;11.30;99.90;;;;;;5093713;28;20051;-66
2023/01/02 06:58:31;;;;;;;8.20;5.00;;;11.30;99.90;;;;;;5075624;28;20152;-66
2023/01/02 07:01:02;;;;;;;8.80;4.63;;;11.30;99.90;;;;;;5093666;28;20051;-66
2023/01/02 07:03:28;;;;;;;8.18;4.72;;;11.40;99.90;;;;;;5093332;28;20488;-66
2023/01/02 07:05:58;;;;;;;7.50;4.25;;;11.40;99.90;;;;;;5093905;28;20078;-66
2023/01/02 07:08:23;;;;;;;8.10;4.22;;;11.40;99.90;;;;;;5075815;28;20059;-66
2023/01/02 07:10:49;;;;;;;11.43;5.60;;;11.40;99.90;;;;;;5075275;28;20073;-66
2023/01/02 07:13:15;;;;;;;9.80;5.55;;;11.30;99.90;;;;;;5093587;28;20048;-66
2023/01/02 07:15:40;;;;;;;5.07;3.17;;;11.30;99.90;;;;;;5075755;28;20036;-65
2023/01/02 07:18:06;;;;;;;5.20;3.08;;;11.30;99.90;;;;;;5075138;28;20131;-66
2023/01/02 07:20:32;;;;;;;8.90;3.85;;;11.30;99.90;;;;;;5093552;28;20041;-66
2023/01/02 07:22:57;;;;;;;4.63;3.10;;;11.30;99.90;;;;;;5093578;28;20135;-67
2023/01/02 07:25:23;;;;;;;5.25;3.03;;;11.30;99.90;;;;;;5093409;28;20385;-64
2023/01/02 07:27:48;;;;;;;3.85;2.17;;;11.30;99.90;;;;;;5093972;28;20040;-66
2023/01/02 07:30:14;;;;;;;4.05;2.22;;;11.30;99.90;;;;;;5093921;28;20044;-66
2023/01/02 07:32:40;;;;;;;4.40;2.53;;;11.30;99.90;;;;;;5093427;28;20044;-66
2023/01/02 07:35:06;;;;;;;3.55;2.45;;;11.20;99.90;;;;;;5076219;28;20452;-66
2023/01/02 07:37:32;;;;;;;6.18;3.45;;;11.20;99.90;;;;;;5076136;28;20137;-66
2023/01/02 07:39:58;;;;;;;5.15;2.47;;;11.20;99.90;;;;;;5075852;28;20102;-65
2023/01/02 07:42:23;;;;;;;3.00;2.13;;;11.20;99.90;;;;;;5093314;28;20044;-65
2023/01/02 07:44:49;;;;;;;2.08;1.50;;;11.10;99.90;;;;;;5075500;28;20476;-66
2023/01/02 07:47:14;;;;;;;2.35;1.08;;;11.10;99.90;;;;;;5058574;28;20050;-66
2023/01/02 07:49:40;;;;;;;1.10;0.90;;;11.10;99.90;;;;;;5093511;28;20052;-65
2023/01/02 07:52:10;;;;;;;1.40;0.70;;;11.00;99.90;;;;;;5075091;28;20048;-67
2023/01/02 07:54:36;;;;;;;1.70;1.05;;;10.90;99.90;;;;;;5094089;28;20126;-66
2023/01/02 07:57:02;;;;;;;1.73;1.02;;;10.80;99.90;;;;;;5076737;28;20048;-66
2023/01/02 07:59:27;;;;;;;2.35;1.10;;;10.70;99.90;;;;;;5097042;28;20059;-68
2023/01/02 08:01:53;;;;;;;2.67;1.08;;;10.50;99.90;;;;;;5097018;28;20151;-66
2023/01/02 08:04:19;;;;;;;2.33;1.40;;;10.30;99.90;;;;;;5079926;28;20048;-68
2023/01/02 08:06:45;;;;;;;2.70;1.60;;;10.00;99.90;;;;;;5097483;28;20479;-66
2023/01/02 08:09:10;;;;;;;3.90;2.00;;;9.80;99.90;;;;;;5096877;28;20040;-66
2023/01/02 08:11:36;;;;;;;2.88;1.67;;;9.70;99.90;;;;;;5097117;28;20043;-68
2023/01/02 08:14:02;;;;;;;4.40;1.70;;;9.70;99.90;;;;;;5097341;28;20047;-66
2023/01/02 08:16:28;;;;;;;2.80;1.20;;;9.60;99.90;;;;;;5078846;28;20044;-66
2023/01/02 08:18:55;;;;;;;2.28;1.00;;;9.50;99.90;;;;;;5096557;28;20464;-66
2023/01/02 08:21:22;;;;;;;2.15;0.70;;;9.40;99.90;;;;;;5096627;28;20044;-67
2023/01/02 08:23:47;;;;;;;1.77;0.90;;;9.30;99.90;;;;;;5096620;28;20058;-66
2023/01/02 08:26:13;;;;;;;1.13;0.73;;;9.20;99.90;;;;;;5096631;28;20044;-67
2023/01/02 08:28:40;;;;;;;1.08;0.50;;;9.20;99.90;;;;;;5096528;28;20539;-70
2023/01/02 08:31:18;;;;;;;0.70;0.50;;;9.10;99.90;;;;;;5096446;28;20135;-66
2023/01/02 08:33:44;;;;;;;0.90;0.43;;;9.00;99.90;;;;;;5097227;28;20043;-66
2023/01/02 08:36:10;;;;;;;1.20;0.60;;;8.90;99.90;;;;;;5096928;28;20047;-65
2023/01/02 08:38:36;;;;;;;0.95;0.40;;;8.80;99.90;;;;;;5096247;28;20150;-66
2023/01/02 08:41:01;;;;;;;2.15;0.50;;;8.80;99.90;;;;;;5096293;28;20141;-66
2023/01/02 08:43:27;;;;;;;1.13;0.60;;;8.70;99.90;;;;;;5078857;28;20044;-66
2023/01/02 08:45:54;;;;;;;1.55;0.50;;;8.60;99.90;;;;;;5096209;28;20059;-66
2023/01/02 08:48:19;;;;;;;1.80;0.57;;;8.60;99.90;;;;;;5061345;28;20059;-66
2023/01/02 08:50:45;;;;;;;1.38;0.52;;;8.60;99.90;;;;;;5096508;28;20036;-66
2023/01/02 08:53:11;;;;;;;2.38;0.70;;;8.50;99.90;;;;;;5078241;28;20052;-66
2023/01/02 08:55:37;;;;;;;2.83;0.60;;;8.60;99.90;;;;;;5096123;28;20392;-66
2023/01/02 08:58:02;;;;;;;1.33;0.60;;;8.50;99.90;;;;;;5078916;28;20079;-66
2023/01/02 09:00:28;;;;;;;2.13;0.80;;;8.50;99.90;;;;;;5096108;28;20047;-66
2023/01/02 09:02:54;;;;;;;2.40;0.80;;;8.50;99.90;;;;;;5096027;28;20040;-66
2023/01/02 09:05:19;;;;;;;1.67;0.65;;;8.50;99.90;;;;;;5096582;28;20081;-65
2023/01/02 09:07:45;;;;;;;1.42;0.55;;;8.40;99.90;;;;;;5096028;28;20052;-65
2023/01/02 09:10:11;;;;;;;1.55;0.50;;;8.40;99.90;;;;;;5095332;28;20044;-66
2023/01/02 09:12:36;;;;;;;2.28;0.50;;;8.40;99.90;;;;;;5095779;28;20123;-65
2023/01/02 09:15:03;;;;;;;1.30;0.40;;;8.40;99.90;;;;;;5096017;28;20052;-65
2023/01/02 09:17:29;;;;;;;0.65;0.40;;;8.50;99.90;;;;;;5096131;28;20093;-66
2023/01/02 09:19:54;;;;;;;2.08;0.60;;;8.50;99.90;;;;;;5095576;28;20044;-65
2023/01/02 09:22:20;;;;;;;1.38;0.50;;;8.40;99.90;;;;;;5095605;28;20054;-65
2023/01/02 09:24:46;;;;;;;2.72;0.90;;;8.40;99.90;;;;;;5096154;28;20052;-66
2023/01/02 09:27:11;;;;;;;1.50;0.73;;;8.40;99.90;;;;;;5077724;28;20040;-66
2023/01/02 09:29:37;;;;;;;2.00;0.65;;;8.50;99.90;;;;;;5095473;28;20040;-66
2023/01/02 09:32:03;;;;;;;1.42;0.75;;;8.50;99.90;;;;;;5095441;28;20087;-72
2023/01/02 09:34:29;;;;;;;1.90;0.73;;;8.50;99.90;;;;;;5095941;28;20051;-72
2023/01/02 09:36:54;;;;;;;1.50;0.65;;;8.50;99.90;;;;;;5095187;28;20039;-71
2023/01/02 09:39:20;;;;;;;1.48;0.60;;;8.50;99.90;;;;;;5095307;28;20070;-75
2023/01/02 09:41:52;;;;;;;3.63;0.60;;;8.50;99.90;;;;;;5096057;28;20483;-72
2023/01/02 09:44:44;;;;;;;2.47;0.70;;;8.50;99.90;;;;;;5077398;28;20055;-71
2023/01/02 09:47:10;;;;;;;1.25;0.57;;;8.50;99.90;;;;;;5094413;28;20048;-71
2023/01/02 09:50:00;;;;;;;1.35;0.60;;;8.50;99.90;;;;;;5095023;28;20074;-71
2023/01/02 09:52:35;;;;;;;0.93;0.60;;;8.40;99.90;;;;;;5095065;28;20073;-70
2023/01/02 09:55:01;;;;;;;1.65;0.50;;;8.50;99.90;;;;;;5094995;28;20048;-71
2023/01/02 09:57:27;;;;;;;1.33;0.52;;;8.50;99.90;;;;;;5094841;28;20040;-71
2023/01/02 10:00:08;;;;;;;1.92;0.50;;;8.50;99.90;;;;;;5094895;28;20055;-72
2023/01/02 10:02:52;;;;;;;1.20;0.60;;;8.50;99.90;;;;;;5095665;28;20048;-71
2023/01/02 10:05:39;;;;;;;3.35;1.30;;;8.50;99.90;;;;;;5094808;28;20051;-69
2023/01/02 10:08:30;;;;;;;3.10;1.00;;;8.50;99.90;;;;;;5094447;28;20522;-68
2023/01/02 10:11:16;;;;;;;0.82;0.60;;;8.50;99.90;;;;;;5094728;28;20047;-68
2023/01/02 10:13:46;;;;;;;2.72;0.60;;;8.60;99.90;;;;;;5094673;28;20403;-67
2023/01/02 10:16:30;;;;;;;0.98;0.50;;;8.60;99.90;;;;;;5094624;28;20054;-69
2023/01/02 10:18:59;;;;;;;2.60;0.70;;;8.60;99.90;;;;;;5095234;28;20040;-67
2023/01/02 10:21:29;;;;;;;1.60;0.60;;;8.60;99.90;;;;;;5093472;28;20131;-67
2023/01/02 10:24:10;;;;;;;1.40;0.52;;;8.60;99.90;;;;;;5094397;28;20364;-67
2023/01/02 10:26:40;;;;;;;1.98;0.80;;;8.60;99.90;;;;;;5094420;28;20127;-68
2023/01/02 10:29:44;;;;;;;1.90;0.60;;;8.70;99.90;;;;;;5094649;28;20522;-67
2023/01/02 10:32:16;;;;;;;2.45;0.60;;;8.60;99.90;;;;;;5052585;28;20056;-67
2023/01/02 10:34:57;;;;;;;0.93;0.68;;;8.70;99.90;;;;;;5076434;28;20036;-67
2023/01/02 10:37:25;;;;;;;1.33;0.60;;;8.70;99.90;;;;;;5094780;28;20131;-67
2023/01/02 10:39:51;;;;;;;1.40;0.60;;;8.70;99.90;;;;;;5076146;28;20051;-68
2023/01/02 10:42:17;;;;;;;1.15;0.50;;;8.70;99.90;;;;;;5094116;28;20441;-67
2023/01/02 10:44:45;;;;;;;1.23;0.50;;;8.70;99.90;;;;;;5094077;28;20044;-66
2023/01/02 10:47:23;;;;;;;1.23;0.60;;;8.60;99.90;;;;;;5094592;28;20051;-68
2023/01/02 10:49:51;;;;;;;0.90;0.60;;;8.70;99.90;;;;;;5094861;28;20077;-71
2023/01/02 10:52:31;;;;;;;1.35;0.63;;;8.60;99.90;;;;;;5076394;28;20052;-72
2023/01/02 10:54:59;;;;;;;1.23;0.70;;;8.60;99.90;;;;;;5094790;28;20365;-72
2023/01/02 10:57:32;;;;;;;2.80;0.80;;;8.60;99.90;;;;;;5093517;28;20062;-73
2023/01/02 10:59:59;;;;;;;4.00;0.90;;;8.50;99.90;;;;;;5093468;28;20082;-72
2023/01/02 11:02:36;;;;;;;2.50;0.80;;;8.50;99.90;;;;;;5093776;28;20097;-72
2023/01/02 11:05:03;;;;;;;1.83;0.70;;;8.50;99.90;;;;;;5093821;28;20083;-74
2023/01/02 11:07:35;;;;;;;1.20;0.55;;;8.50;99.90;;;;;;5075914;28;20055;-72
2023/01/02 11:10:00;;;;;;;2.13;0.70;;;8.40;99.90;;;;;;5093798;28;20043;-71
2023/01/02 11:12:26;;;;;;;1.48;0.68;;;8.40;99.90;;;;;;5093651;28;20102;-71
2023/01/02 11:15:08;;;;;;;2.72;0.70;;;8.50;99.90;;;;;;5093613;28;20101;-71
2023/01/02 11:17:42;;;;;;;3.85;0.80;;;8.40;99.90;;;;;;5093842;28;20058;-72
2023/01/02 11:20:23;;;;;;;1.40;0.70;;;8.50;99.90;;;;;;5076256;28;20431;-72
2023/01/02 11:22:49;;;;;;;3.30;0.70;;;8.50;99.90;;;;;;5093666;28;20083;-72
2023/01/02 11:25:23;;;;;;;1.27;0.70;;;8.50;99.90;;;;;;5094122;28;20043;-71
2023/01/02 11:27:50;;;;;;;2.03;0.80;;;8.50;99.90;;;;;;5076131;28;20051;-73
2023/01/02 11:30:36;;;;;;;3.08;0.80;;;8.50;99.90;;;;;;5075497;28;20039;-73
2023/01/02 11:33:06;;;;;;;1.52;0.45;;;8.60;99.90;;;;;;5078343;28;20054;-72
2023/01/02 11:35:44;;;;;;;1.08;0.63;;;8.60;99.90;;;;;;5097048;28;20499;-71
2023/01/02 11:38:15;;;;;;;2.28;0.60;;;8.60;99.90;;;;;;5097625;28;20422;-72
2023/01/02 11:40:52;;;;;;;1.48;0.40;;;8.70;99.90;;;;;;5079158;28;20090;-73
2023/01/02 11:46:14;;;;;;;2.15;0.50;;;8.70;99.90;;;;;;5097230;28;20048;-72
2023/01/02 11:48:40;;;;;;;2.13;1.15;;;8.70;99.90;;;;;;5097164;28;20048;-72
2023/01/02 11:51:15;;;;;;;1.98;0.60;;;8.70;99.90;;;;;;5097105;28;20494;-73
2023/01/02 11:53:47;;;;;;;3.35;0.85;;;8.70;99.90;;;;;;5078982;28;20052;-72
2023/01/02 11:56:29;;;;;;;3.22;1.17;;;8.70;99.90;;;;;;5097100;28;20094;-71
2023/01/02 11:59:26;;;;;;;1.83;0.60;;;8.70;99.90;;;;;;5097004;28;20476;-72
2023/01/02 12:02:04;;;;;;;1.77;0.70;;;8.70;99.90;;;;;;5097111;28;20048;-71
2023/01/02 12:04:30;;;;;;;1.40;1.00;;;8.70;99.90;;;;;;5098024;28;20118;-71
2023/01/02 12:07:14;;;;;;;2.63;1.02;;;8.70;99.90;;;;;;5079068;28;20428;-71
2023/01/02 12:09:52;;;;;;;2.75;0.60;;;8.70;99.90;;;;;;5097128;28;20050;-70
2023/01/02 12:12:56;;;;;;;3.05;0.68;;;8.70;99.90;;;;;;5079170;28;20110;-70
2023/01/02 12:15:46;;;;;;;2.60;0.80;;;8.70;99.90;;;;;;5066036;28;20093;-71
2023/01/02 12:18:32;;;;;;;2.42;0.70;;;8.70;99.90;;;;;;5097059;28;20043;-71
2023/01/02 12:21:19;;;;;;;2.83;0.60;;;8.70;99.90;;;;;;5096888;28;20040;-70
2023/01/02 12:23:51;;;;;;;1.92;0.73;;;8.70;99.90;;;;;;5079011;28;20130;-71
2023/01/02 12:26:48;;;;;;;2.22;0.80;;;8.70;99.90;;;;;;5079252;28;20182;-71
2023/01/02 12:29:41;;;;;;;1.52;0.68;;;8.80;99.90;;;;;;5083300;28;20113;-71
2023/01/02 12:32:44;;;;;;;1.65;0.75;;;8.90;99.90;;;;;;5096174;28;20048;-72
2023/01/02 12:35:21;;;;;;;1.20;0.80;;;8.90;99.90;;;;;;5096515;28;20052;-71
2023/01/02 12:37:55;;;;;;;3.42;0.88;;;8.90;99.90;;;;;;5096954;28;20365;-71
2023/01/02 12:40:45;;;;;;;3.55;0.70;;;9.00;99.90;;;;;;5096480;28;20126;-75
2023/01/02 12:43:29;;;;;;;3.95;1.00;;;9.00;99.90;;;;;;5060724;28;20051;-72
2023/01/02 12:46:29;;;;;;;4.20;0.80;;;8.90;99.90;;;;;;5078806;28;20048;-73
2023/01/02 12:49:09;;;;;;;6.80;0.80;;;8.90;99.90;;;;;;5096109;28;20040;-71
2023/01/02 12:52:06;;;;;;;2.53;0.70;;;8.90;99.90;;;;;;5078437;28;20044;-71
2023/01/02 12:54:50;;;;;;;3.05;0.60;;;8.90;99.90;;;;;;5096472;28;20051;-72
2023/01/02 12:57:19;;;;;;;3.67;0.98;;;9.00;99.90;;;;;;5096046;28;20048;-70
2023/01/02 13:00:26;;;;;;;3.92;0.95;;;8.90;99.90;;;;;;5096011;28;20044;-69
2023/01/02 13:03:01;;;;;;;3.95;0.80;;;8.90;99.90;;;;;;5050733;28;20442;-70
2023/01/02 13:05:33;;;;;;;5.75;0.80;;;8.90;99.90;;;;;;5096729;28;20121;-72
2023/01/02 13:08:13;;;;;;;5.78;0.95;;;8.90;99.90;;;;;;5096142;28;20048;-72
2023/01/02 13:10:40;;;;;;;3.60;0.80;;;8.90;99.90;;;;;;5096704;28;20403;-72